createdAt,value
2018-04-14T00:02:24.534Z,98936.73
2018-04-14T00:04:52.654Z,98940.09
2018-04-14T00:07:20.785Z,98938.25
2018-04-14T00:09:48.919Z,98939.32
2018-04-14T00:12:16.999Z,98939.44
2018-04-14T00:14:45.129Z,98935.80
2018-04-14T00:17:13.239Z,98938.77
2018-04-14T00:19:41.357Z,98937.03
2018-04-14T00:22:09.490Z,98935.91
2018-04-14T00:24:37.590Z,98934.06
2018-04-14T00:27:05.785Z,98939.23
2018-04-14T00:29:33.961Z,98934.64
2018-04-14T00:32:02.090Z,98938.22
2018-04-14T00:34:30.206Z,98934.47
2018-04-14T00:36:58.343Z,98929.95
2018-04-14T00:39:26.447Z,98927.62
2018-04-14T00:41:54.572Z,98926.39
2018-04-14T00:44:22.687Z,98927.75
2018-04-14T00:46:50.799Z,98925.15
2018-04-14T00:49:18.907Z,98920.29
2018-04-14T00:51:47.049Z,98915.92
2018-04-14T00:54:15.169Z,98905.02
2018-04-14T00:56:43.281Z,98914.48
2018-04-14T00:59:11.419Z,98907.36
2018-04-14T01:01:39.515Z,98912.80
2018-04-14T01:04:07.644Z,98920.03
2018-04-14T01:06:35.806Z,98921.92
2018-04-14T01:09:03.925Z,98934.41
2018-04-14T01:11:32.029Z,98935.91
2018-04-14T01:14:00.168Z,98933.09
2018-04-14T01:16:28.286Z,98936.27
2018-04-14T01:18:56.410Z,98943.56
2018-04-14T01:21:24.565Z,98948.91
2018-04-14T01:23:52.689Z,98953.85
2018-04-14T01:26:20.815Z,98948.06
2018-04-14T01:28:48.940Z,98959.30
2018-04-14T01:31:17.061Z,98957.77
2018-04-14T01:33:45.164Z,98958.07
2018-04-14T01:36:13.312Z,98960.03
2018-04-14T01:38:41.422Z,98960.50
2018-04-14T01:41:09.842Z,98951.27
2018-04-14T01:43:37.959Z,98957.27
2018-04-14T01:46:06.063Z,98959.02
2018-04-14T01:48:34.184Z,98962.91
2018-04-14T01:51:02.331Z,98963.61
2018-04-14T01:53:30.461Z,98972.58
2018-04-14T01:55:58.562Z,98975.36
2018-04-14T01:58:26.707Z,98988.10
2018-04-14T02:00:54.824Z,98991.69
2018-04-14T02:03:22.967Z,98981.74
2018-04-14T02:05:51.074Z,98988.09
2018-04-14T02:08:19.206Z,98990.36
2018-04-14T02:10:47.342Z,98982.72
2018-04-14T02:13:15.538Z,98989.64
2018-04-14T02:15:43.641Z,98991.52
2018-04-14T02:18:11.793Z,98986.61
2018-04-14T02:20:39.909Z,98992.25
2018-04-14T02:23:08.021Z,98997.52
2018-04-14T02:25:36.154Z,99002.22
2018-04-14T02:28:04.275Z,99005.28
2018-04-14T02:30:32.424Z,99010.90
2018-04-14T02:33:00.512Z,99011.57
2018-04-14T02:35:28.654Z,99010.83
2018-04-14T02:37:56.759Z,99005.66
2018-04-14T02:40:24.871Z,99012.36
2018-04-14T02:42:53.010Z,99010.21
2018-04-14T02:45:21.111Z,99013.11
2018-04-14T02:47:49.241Z,99017.35
2018-04-14T02:50:17.386Z,99012.75
2018-04-14T02:52:45.501Z,99016.17
2018-04-14T02:55:13.689Z,99015.94
2018-04-14T02:57:41.804Z,99020.84
2018-04-14T03:00:09.911Z,99027.73
2018-04-14T03:02:38.011Z,99027.07
2018-04-14T03:05:06.299Z,99027.77
2018-04-14T03:07:34.495Z,99031.48
2018-04-14T03:10:02.614Z,99021.94
2018-04-14T03:12:30.757Z,99029.86
2018-04-14T03:14:58.863Z,99033.37
2018-04-14T03:17:26.991Z,99033.17
2018-04-14T03:19:55.110Z,99031.27
2018-04-14T03:22:23.230Z,99035.59
2018-04-14T03:24:51.370Z,99034.47
2018-04-14T03:27:19.493Z,99025.00
2018-04-14T03:29:47.599Z,99040.81
2018-04-14T03:32:15.699Z,99044.03
2018-04-14T03:34:43.856Z,99049.00
2018-04-14T03:37:11.979Z,99052.79
2018-04-14T03:39:40.093Z,99054.97
2018-04-14T03:42:08.221Z,99057.86
2018-04-14T03:44:36.341Z,99061.55
2018-04-14T03:47:04.499Z,99060.55
2018-04-14T03:49:32.638Z,99063.66
2018-04-14T03:52:00.758Z,99076.37
2018-04-14T03:54:28.866Z,99077.08
2018-04-14T03:56:56.981Z,99074.25
2018-04-14T03:59:25.139Z,99075.71
2018-04-14T04:01:53.271Z,99078.61
2018-04-14T04:04:21.398Z,99078.84
2018-04-14T04:06:49.522Z,99083.13
2018-04-14T04:09:17.647Z,99089.02
2018-04-14T04:11:45.772Z,99094.87
2018-04-14T04:14:14.377Z,99101.03
2018-04-14T04:16:42.500Z,99110.67
2018-04-14T04:19:22.344Z,99114.48
2018-04-14T04:22:02.302Z,99115.94
2018-04-14T04:24:42.305Z,99126.73
2018-04-14T04:27:10.406Z,99127.61
2018-04-14T04:29:38.572Z,99126.00
2018-04-14T04:32:06.714Z,99130.75
2018-04-14T04:34:34.839Z,99130.48
2018-04-14T04:37:02.942Z,99137.17
2018-04-14T04:39:31.166Z,99135.74
2018-04-14T04:41:59.300Z,99149.52
2018-04-14T04:44:27.410Z,99148.10
2018-04-14T04:46:55.625Z,99147.16
2018-04-14T04:49:23.745Z,99150.47
2018-04-14T04:51:51.887Z,99157.80
2018-04-14T04:54:20.015Z,99163.77
2018-04-14T04:56:48.171Z,99160.75
2018-04-14T04:59:16.289Z,99156.48
2018-04-14T05:01:44.418Z,99154.61
2018-04-14T05:04:12.538Z,99157.23
2018-04-14T05:06:40.655Z,99165.47
2018-04-14T05:09:08.780Z,99163.99
2018-04-14T05:11:36.922Z,99172.35
2018-04-14T05:14:05.017Z,99172.28
2018-04-14T05:16:33.145Z,99164.73
2018-04-14T05:19:01.277Z,99171.59
2018-04-14T05:21:29.389Z,99168.20
2018-04-14T05:23:57.522Z,99167.92
2018-04-14T05:26:25.649Z,99166.20
2018-04-14T05:28:53.870Z,99171.39
2018-04-14T05:31:22.158Z,99181.59
2018-04-14T05:33:50.355Z,99186.16
2018-04-14T05:36:18.472Z,99190.02
2018-04-14T05:38:46.602Z,99189.67
2018-04-14T05:41:14.705Z,99201.39
2018-04-14T05:43:42.828Z,99199.80
2018-04-14T05:46:10.957Z,99200.36
2018-04-14T05:48:39.066Z,99202.88
2018-04-14T05:51:08.114Z,99200.86
2018-04-14T05:53:36.248Z,99203.31
2018-04-14T05:56:04.408Z,99205.38
2018-04-14T05:58:32.517Z,99210.95
2018-04-14T06:01:00.618Z,99217.57
2018-04-14T06:03:36.570Z,99215.89
2018-04-14T06:06:04.746Z,99213.64
2018-04-14T06:08:32.864Z,99217.80
2018-04-14T06:11:00.971Z,99216.57
2018-04-14T06:13:29.122Z,99216.19
2018-04-14T06:15:57.235Z,99216.74
2018-04-14T06:18:25.591Z,99217.59
2018-04-14T06:20:53.751Z,99224.37
2018-04-14T06:23:21.888Z,99217.11
2018-04-14T06:25:50.008Z,99223.14
2018-04-14T06:28:18.234Z,99221.08
2018-04-14T06:30:52.989Z,99230.36
2018-04-14T06:33:21.213Z,99227.14
2018-04-14T06:35:49.372Z,99230.38
2018-04-14T06:38:17.561Z,99236.94
2018-04-14T06:40:45.706Z,99241.50
2018-04-14T06:43:13.828Z,99245.03
2018-04-14T06:45:41.948Z,99248.80
2018-04-14T06:48:10.120Z,99249.09
2018-04-14T06:50:38.275Z,99248.89
2018-04-14T06:53:06.500Z,99243.89
2018-04-14T06:55:34.627Z,99242.28
2018-04-14T06:58:02.743Z,99254.97
2018-04-14T07:00:30.851Z,99248.91
2018-04-14T07:02:59.010Z,99254.70
2018-04-14T07:05:27.154Z,99254.08
2018-04-14T07:07:55.262Z,99248.92
2018-04-14T07:10:23.553Z,99253.95
2018-04-14T07:12:51.673Z,99249.31
2018-04-14T07:15:19.823Z,99250.02
2018-04-14T07:17:48.243Z,99244.48
2018-04-14T07:20:16.384Z,99240.91
2018-04-14T07:22:44.539Z,99234.13
2018-04-14T07:25:12.762Z,99237.08
2018-04-14T07:27:40.874Z,99239.28
2018-04-14T07:30:08.979Z,99236.02
2018-04-14T07:32:37.112Z,99243.81
2018-04-14T07:35:05.274Z,99240.42
2018-04-14T07:37:33.447Z,99235.75
2018-04-14T07:40:01.570Z,99233.84
2018-04-14T07:42:29.691Z,99235.25
2018-04-14T07:44:57.802Z,99234.33
2018-04-14T07:47:25.955Z,99240.47
2018-04-14T07:49:54.098Z,99236.44
2018-04-14T07:52:22.261Z,99238.44
2018-04-14T07:54:50.397Z,99238.10
2018-04-14T07:57:18.494Z,99234.78
2018-04-14T07:59:46.603Z,99241.46
2018-04-14T08:02:14.776Z,99244.69
2018-04-14T08:04:42.885Z,99241.31
2018-04-14T08:07:11.027Z,99243.78
2018-04-14T08:09:39.153Z,99237.41
2018-04-14T08:12:07.292Z,99237.24
2018-04-14T08:14:35.415Z,99229.10
2018-04-14T08:17:03.542Z,99232.75
2018-04-14T08:19:31.698Z,99226.14
2018-04-14T08:21:59.912Z,99222.77
2018-04-14T08:24:28.102Z,99229.98
2018-04-14T08:26:56.216Z,99229.52
2018-04-14T08:29:24.328Z,99225.97
2018-04-14T08:31:52.481Z,99226.01
2018-04-14T08:34:20.602Z,99227.55
2018-04-14T08:36:48.776Z,99215.80
2018-04-14T08:39:16.924Z,99225.72
2018-04-14T08:41:45.057Z,99218.03
2018-04-14T08:44:13.168Z,99216.52
2018-04-14T08:46:41.300Z,99204.53
2018-04-14T08:49:09.428Z,99203.52
2018-04-14T08:51:37.577Z,99205.53
2018-04-14T08:54:05.703Z,99200.03
2018-04-14T08:56:34.523Z,99197.94
2018-04-14T08:59:02.653Z,99189.56
2018-04-14T09:01:30.861Z,99181.70
2018-04-14T09:03:58.969Z,99184.48
2018-04-14T09:06:27.125Z,99181.15
2018-04-14T09:08:55.271Z,99177.69
2018-04-14T09:11:23.415Z,99159.45
2018-04-14T09:13:51.607Z,99174.69
2018-04-14T09:16:19.741Z,99168.26
2018-04-14T09:18:47.879Z,99171.56
2018-04-14T09:21:15.996Z,99166.36
2018-04-14T09:23:44.137Z,99161.94
2018-04-14T09:26:12.316Z,99162.98
2018-04-14T09:28:40.446Z,99162.09
2018-04-14T09:31:08.594Z,99158.00
2018-04-14T09:33:36.726Z,99154.94
2018-04-14T09:36:05.713Z,99160.66
2018-04-14T09:38:33.928Z,99147.05
2018-04-14T09:41:02.044Z,99139.16
2018-04-14T09:43:30.581Z,99130.55
2018-04-14T09:45:58.711Z,99135.39
2018-04-14T09:48:26.837Z,99129.84
2018-04-14T09:50:54.992Z,99124.83
2018-04-14T09:53:23.118Z,99127.38
2018-04-14T09:55:51.674Z,99134.46
2018-04-14T09:58:19.809Z,99124.01
2018-04-14T10:00:55.146Z,99129.56
2018-04-14T10:03:23.260Z,99123.16
2018-04-14T10:05:51.386Z,99125.45
2018-04-14T10:08:19.519Z,99113.58
2018-04-14T10:10:47.660Z,99114.73
2018-04-14T10:13:15.813Z,99110.23
2018-04-14T10:15:44.079Z,99107.97
2018-04-14T10:18:12.205Z,99111.23
2018-04-14T10:20:41.205Z,99108.06
2018-04-14T10:23:10.023Z,99112.99
2018-04-14T10:25:39.064Z,99107.28
2018-04-14T10:28:07.199Z,99098.25
2018-04-14T10:30:35.441Z,99105.08
2018-04-14T10:33:04.478Z,99094.82
2018-04-14T10:35:33.135Z,99096.61
2018-04-14T10:38:01.421Z,99098.88
2018-04-14T10:40:30.592Z,99081.69
2018-04-14T10:42:58.759Z,99086.95
2018-04-14T10:45:26.913Z,99074.22
2018-04-14T10:47:55.026Z,99077.81
2018-04-14T10:50:23.184Z,99073.84
2018-04-14T10:52:52.191Z,99067.86
2018-04-14T10:55:20.331Z,99062.67
2018-04-14T10:57:48.471Z,99059.12
2018-04-14T11:00:16.588Z,99069.98
2018-04-14T11:02:44.722Z,99062.83
2018-04-14T11:05:12.858Z,99067.52
2018-04-14T11:07:40.998Z,99066.14
2018-04-14T11:10:09.229Z,99061.52
2018-04-14T11:12:37.995Z,99060.30
2018-04-14T11:15:06.234Z,99058.13
2018-04-14T11:17:34.357Z,99056.41
2018-04-14T11:20:02.481Z,99053.83
2018-04-14T11:22:30.629Z,99044.97
2018-04-14T11:24:58.756Z,99046.93
2018-04-14T11:27:26.935Z,99050.28
2018-04-14T11:29:55.095Z,99049.45
2018-04-14T11:32:23.222Z,99045.85
2018-04-14T11:34:51.425Z,99048.77
2018-04-14T11:37:19.567Z,99059.23
2018-04-14T11:39:47.719Z,99051.97
2018-04-14T11:42:15.840Z,99046.97
2018-04-14T11:44:44.203Z,99051.38
2018-04-14T11:47:12.388Z,99044.77
2018-04-14T11:49:40.555Z,99037.44
2018-04-14T11:52:08.703Z,99038.75
2018-04-14T11:54:36.827Z,99030.91
2018-04-14T11:57:04.967Z,99036.73
2018-04-14T11:59:33.272Z,99036.80
2018-04-14T12:02:04.656Z,99034.52
2018-04-14T12:04:35.006Z,99051.56
2018-04-14T12:07:03.225Z,99032.81
2018-04-14T12:09:31.360Z,99038.35
2018-04-14T12:11:59.539Z,99030.16
2018-04-14T12:14:27.683Z,99035.03
2018-04-14T12:16:55.829Z,99031.33
2018-04-14T12:19:23.951Z,99020.34
2018-04-14T12:21:52.247Z,99025.22
2018-04-14T12:24:20.372Z,99019.99
2018-04-14T12:26:48.501Z,99028.48
2018-04-14T12:29:16.633Z,99021.89
2018-04-14T12:31:44.798Z,99024.85
2018-04-14T12:34:14.001Z,99021.57
2018-04-14T12:36:42.649Z,99017.47
2018-04-14T12:39:10.773Z,98999.40
2018-04-14T12:41:38.971Z,99001.29
2018-04-14T12:44:07.123Z,99004.08
2018-04-14T12:46:35.294Z,98998.27
2018-04-14T12:49:03.461Z,98993.13
2018-04-14T12:51:31.585Z,98984.27
2018-04-14T12:53:59.701Z,98980.88
2018-04-14T12:56:27.818Z,98980.97
2018-04-14T12:58:55.960Z,98984.80
2018-04-14T13:01:24.106Z,98976.55
2018-04-14T13:03:52.232Z,98976.55
2018-04-14T13:06:20.371Z,98971.77
2018-04-14T13:08:48.495Z,98974.32
2018-04-14T13:11:18.570Z,98966.34
2018-04-14T13:13:46.810Z,98959.80
2018-04-14T13:16:14.940Z,98959.16
2018-04-14T13:18:44.362Z,98955.45
2018-04-14T13:21:12.543Z,98960.01
2018-04-14T19:14:48.769Z,98966.67
2018-04-14T19:17:16.943Z,98970.38
2018-04-14T19:19:45.152Z,98968.02
2018-04-14T19:22:13.296Z,98975.66
2018-04-14T19:24:41.493Z,98975.56
2018-04-14T19:27:09.628Z,98977.18
2018-04-14T19:29:37.752Z,98974.67
2018-04-14T19:32:06.136Z,98971.59
2018-04-14T19:34:34.747Z,98971.73
2018-04-14T19:37:03.534Z,98971.44
2018-04-14T19:39:31.877Z,98974.05
2018-04-14T19:42:01.785Z,98971.27
2018-04-14T19:44:30.181Z,98974.39
2018-04-14T19:46:58.282Z,98976.38
2018-04-14T19:49:26.398Z,98972.23
2018-04-14T19:51:54.672Z,98979.53
2018-04-14T19:54:22.793Z,98969.73
2018-04-14T19:56:50.934Z,98966.11
2018-04-14T19:59:19.899Z,98965.52
2018-04-14T20:01:48.379Z,98969.81
2018-04-14T20:04:16.719Z,98967.30
2018-04-14T20:06:44.889Z,98963.39
2018-04-14T20:09:13.023Z,98961.14
2018-04-14T20:11:41.132Z,98959.56
2018-04-14T20:14:09.260Z,98951.69
2018-04-14T20:16:38.959Z,98953.80
2018-04-14T20:19:07.110Z,98948.41
2018-04-14T20:21:35.395Z,98942.18
2018-04-14T20:24:03.514Z,98939.82
2018-04-14T20:26:31.658Z,98936.88
2018-04-14T20:28:59.816Z,98929.28
2018-04-14T20:31:27.941Z,98931.88
2018-04-14T20:33:56.122Z,98923.03
2018-04-14T20:36:24.270Z,98930.84
2018-04-14T20:38:52.384Z,98926.13
2018-04-14T20:41:20.500Z,98922.39
2018-04-14T20:43:48.667Z,98924.00
2018-04-14T20:46:16.787Z,98926.59
2018-04-14T20:48:44.902Z,98922.69
2018-04-14T20:51:13.384Z,98920.27
2018-04-14T20:53:41.503Z,98919.88
2018-04-14T20:56:09.626Z,98911.69
2018-04-14T20:58:37.985Z,98908.59
2018-04-14T21:01:06.091Z,98904.95
2018-04-14T21:03:34.204Z,98905.90
2018-04-14T21:06:02.355Z,98897.53
2018-04-14T21:08:30.469Z,98893.39
2018-04-14T21:10:58.723Z,98891.48
2018-04-14T21:13:26.875Z,98879.53
2018-04-14T21:15:54.989Z,98865.98
2018-04-14T21:18:23.102Z,98861.80
2018-04-14T21:20:51.251Z,98859.52
2018-04-14T21:23:19.373Z,98857.09
2018-04-14T21:25:47.507Z,98847.00
2018-04-14T21:28:15.663Z,98829.27
2018-04-14T21:30:43.768Z,98818.00
2018-04-14T21:33:11.891Z,98814.63
2018-04-14T21:35:40.073Z,98808.85
2018-04-14T21:38:08.187Z,98813.53
2018-04-14T21:40:36.315Z,98815.72
2018-04-14T21:43:04.467Z,98818.97
2018-04-14T21:45:32.589Z,98809.97
2018-04-14T21:48:00.714Z,98815.62
2018-04-14T21:50:28.847Z,98819.37
2018-04-14T21:52:56.966Z,98822.34
2018-04-14T21:55:25.098Z,98818.04
2018-04-14T21:57:53.362Z,98813.86
2018-04-14T22:00:21.477Z,98812.92
2018-04-14T22:02:49.582Z,98813.33
2018-04-14T22:05:17.746Z,98808.89
2018-04-14T22:07:45.867Z,98804.48
2018-04-14T22:10:13.985Z,98806.77
2018-04-14T22:12:42.136Z,98809.98
2018-04-14T22:15:10.250Z,98809.83
2018-04-14T22:17:38.366Z,98818.70
2018-04-14T22:20:06.534Z,98819.63
2018-04-14T22:22:34.821Z,98814.42
2018-04-14T22:25:02.953Z,98805.27
2018-04-14T22:27:31.100Z,98796.81
2018-04-14T22:29:59.219Z,98799.36
2018-04-14T22:32:28.226Z,98794.13
2018-04-14T22:34:56.359Z,98806.73
2018-04-14T22:37:24.483Z,98806.87
2018-04-14T22:39:52.611Z,98804.32
2018-04-14T22:42:23.780Z,98809.30
2018-04-14T22:44:51.891Z,98814.40
2018-04-14T22:47:19.997Z,98806.23
2018-04-14T22:49:48.142Z,98815.75
2018-04-14T22:52:16.258Z,98820.31
2018-04-14T22:54:44.372Z,98823.52
2018-04-14T22:57:12.531Z,98818.84
2018-04-14T22:59:40.636Z,98810.25
2018-04-14T23:02:08.759Z,98812.66
2018-04-14T23:04:36.950Z,98815.09
2018-04-14T23:07:05.088Z,98816.03
2018-04-14T23:09:33.248Z,98815.48
2018-04-14T23:12:01.378Z,98817.72
2018-04-14T23:14:29.506Z,98818.53
2018-04-14T23:16:57.614Z,98814.09
2018-04-14T23:19:25.782Z,98820.27
2018-04-14T23:21:53.894Z,98823.09
2018-04-14T23:24:22.167Z,98817.13
2018-04-14T23:26:50.312Z,98809.16
2018-04-14T23:29:18.417Z,98808.93
2018-04-14T23:31:46.531Z,98814.63
2018-04-14T23:34:14.663Z,98811.37
2018-04-14T23:36:42.779Z,98814.75
2018-04-14T23:39:10.913Z,98805.86
2018-04-14T23:41:39.043Z,98807.26
2018-04-14T23:44:07.156Z,98799.91
2018-04-14T23:46:35.263Z,98806.33
2018-04-14T23:49:03.407Z,98798.83
2018-04-14T23:51:31.532Z,98802.23
2018-04-14T23:53:59.661Z,98813.48
2018-04-14T23:56:28.968Z,98816.87
2018-04-14T23:58:57.083Z,98801.98
